sensor_id;sensor_type;location;lat;lon;timestamp;P1;durP1;ratioP1;P2;durP2;ratioP2
553;SDS011;59;48.778;9.156;2023-01-30T00:01:13;23.47;;;15.80;;
553;SDS011;59;48.778;9.156;2023-01-30T00:03:41;18.50;;;13.07;;
553;SDS011;59;48.778;9.156;2023-01-30T00:06:07;20.03;;;14.57;;
553;SDS011;59;48.778;9.156;2023-01-30T00:08:32;20.17;;;14.50;;
553;SDS011;59;48.778;9.156;2023-01-30T00:11:02;21.70;;;15.40;;
553;SDS011;59;48.778;9.156;2023-01-30T00:13:32;21.63;;;15.00;;
553;SDS011;59;48.778;9.156;2023-01-30T00:15:58;23.40;;;15.50;;
553;SDS011;59;48.778;9.156;2023-01-30T00:18:23;19.23;;;14.27;;
553;SDS011;59;48.778;9.156;2023-01-30T00:20:59;22.93;;;15.37;;
553;SDS011;59;48.778;9.156;2023-01-30T00:23:26;25.27;;;16.17;;
553;SDS011;59;48.778;9.156;2023-01-30T00:25:53;22.60;;;15.40;;
553;SDS011;59;48.778;9.156;2023-01-30T00:28:19;20.80;;;14.23;;
553;SDS011;59;48.778;9.156;2023-01-30T00:30:47;21.40;;;14.43;;
553;SDS011;59;48.778;9.156;2023-01-30T00:33:14;22.60;;;15.17;;
553;SDS011;59;48.778;9.156;2023-01-30T00:35:46;20.87;;;14.27;;
553;SDS011;59;48.778;9.156;2023-01-30T00:38:13;21.40;;;14.27;;
553;SDS011;59;48.778;9.156;2023-01-30T00:40:39;21.80;;;14.67;;
553;SDS011;59;48.778;9.156;2023-01-30T00:43:05;23.60;;;15.70;;
553;SDS011;59;48.778;9.156;2023-01-30T00:45:49;19.13;;;13.80;;
553;SDS011;59;48.778;9.156;2023-01-30T00:48:35;23.27;;;14.43;;
553;SDS011;59;48.778;9.156;2023-01-30T00:51:00;23.07;;;15.83;;
553;SDS011;59;48.778;9.156;2023-01-30T00:53:26;21.47;;;15.10;;
553;SDS011;59;48.778;9.156;2023-01-30T00:55:52;23.60;;;14.80;;
553;SDS011;59;48.778;9.156;2023-01-30T00:58:19;21.07;;;14.70;;
553;SDS011;59;48.778;9.156;2023-01-30T01:00:45;21.10;;;14.70;;
553;SDS011;59;48.778;9.156;2023-01-30T01:03:10;19.13;;;13.80;;
553;SDS011;59;48.778;9.156;2023-01-30T01:05:36;23.17;;;14.67;;
553;SDS011;59;48.778;9.156;2023-01-30T01:08:01;20.33;;;14.10;;
553;SDS011;59;48.778;9.156;2023-01-30T01:10:27;20.50;;;14.27;;
553;SDS011;59;48.778;9.156;2023-01-30T01:12:53;22.10;;;15.23;;
553;SDS011;59;48.778;9.156;2023-01-30T01:15:19;23.47;;;15.53;;
553;SDS011;59;48.778;9.156;2023-01-30T01:17:46;21.60;;;15.27;;
553;SDS011;59;48.778;9.156;2023-01-30T01:20:15;23.87;;;14.87;;
553;SDS011;59;48.778;9.156;2023-01-30T01:22:42;20.23;;;13.80;;
553;SDS011;59;48.778;9.156;2023-01-30T01:25:08;21.03;;;15.10;;
553;SDS011;59;48.778;9.156;2023-01-30T01:27:35;23.00;;;15.53;;
553;SDS011;59;48.778;9.156;2023-01-30T01:30:01;20.37;;;14.40;;
553;SDS011;59;48.778;9.156;2023-01-30T01:32:27;19.73;;;14.40;;
553;SDS011;59;48.778;9.156;2023-01-30T01:34:53;20.90;;;14.40;;
553;SDS011;59;48.778;9.156;2023-01-30T01:37:19;22.57;;;15.77;;
553;SDS011;59;48.778;9.156;2023-01-30T01:39:44;21.40;;;15.63;;
553;SDS011;59;48.778;9.156;2023-01-30T01:42:29;22.60;;;16.03;;
553;SDS011;59;48.778;9.156;2023-01-30T01:47:35;19.80;;;14.43;;
553;SDS011;59;48.778;9.156;2023-01-30T01:50:16;21.10;;;14.70;;
553;SDS011;59;48.778;9.156;2023-01-30T01:52:47;21.43;;;15.90;;
553;SDS011;59;48.778;9.156;2023-01-30T01:55:14;20.40;;;14.67;;
553;SDS011;59;48.778;9.156;2023-01-30T01:57:42;22.07;;;14.80;;
553;SDS011;59;48.778;9.156;2023-01-30T02:00:17;23.77;;;16.77;;
553;SDS011;59;48.778;9.156;2023-01-30T02:02:46;22.03;;;15.67;;
553;SDS011;59;48.778;9.156;2023-01-30T02:05:18;23.93;;;15.80;;
553;SDS011;59;48.778;9.156;2023-01-30T02:07:45;21.83;;;15.57;;
553;SDS011;59;48.778;9.156;2023-01-30T02:10:17;22.27;;;15.67;;
553;SDS011;59;48.778;9.156;2023-01-30T02:12:47;22.60;;;15.70;;
553;SDS011;59;48.778;9.156;2023-01-30T02:15:13;19.90;;;14.30;;
553;SDS011;59;48.778;9.156;2023-01-30T02:17:39;21.00;;;14.90;;
553;SDS011;59;48.778;9.156;2023-01-30T02:23:02;20.70;;;15.67;;
553;SDS011;59;48.778;9.156;2023-01-30T02:25:48;21.80;;;15.47;;
553;SDS011;59;48.778;9.156;2023-01-30T02:28:58;20.20;;;13.97;;
553;SDS011;59;48.778;9.156;2023-01-30T02:40:03;21.60;;;14.83;;
553;SDS011;59;48.778;9.156;2023-01-30T02:48:06;22.53;;;15.17;;
553;SDS011;59;48.778;9.156;2023-01-30T02:53:03;22.63;;;15.90;;
553;SDS011;59;48.778;9.156;2023-01-30T02:55:29;21.73;;;14.53;;
553;SDS011;59;48.778;9.156;2023-01-30T02:57:55;24.20;;;17.50;;
553;SDS011;59;48.778;9.156;2023-01-30T03:00:22;23.07;;;15.90;;
553;SDS011;59;48.778;9.156;2023-01-30T03:08:19;20.73;;;14.30;;
553;SDS011;59;48.778;9.156;2023-01-30T03:11:03;24.43;;;16.00;;
553;SDS011;59;48.778;9.156;2023-01-30T03:16:19;21.30;;;15.97;;
553;SDS011;59;48.778;9.156;2023-01-30T03:18:47;24.07;;;15.90;;
553;SDS011;59;48.778;9.156;2023-01-30T03:21:13;23.63;;;16.67;;
553;SDS011;59;48.778;9.156;2023-01-30T03:23:39;25.03;;;16.73;;
553;SDS011;59;48.778;9.156;2023-01-30T03:26:06;24.40;;;16.37;;
553;SDS011;59;48.778;9.156;2023-01-30T03:28:35;23.27;;;15.30;;
553;SDS011;59;48.778;9.156;2023-01-30T03:31:01;23.50;;;16.30;;
553;SDS011;59;48.778;9.156;2023-01-30T03:33:26;22.17;;;16.20;;
553;SDS011;59;48.778;9.156;2023-01-30T03:35:52;23.20;;;15.00;;
553;SDS011;59;48.778;9.156;2023-01-30T03:38:18;21.47;;;15.20;;
553;SDS011;59;48.778;9.156;2023-01-30T03:40:44;23.80;;;16.80;;
553;SDS011;59;48.778;9.156;2023-01-30T03:43:09;21.20;;;14.90;;
553;SDS011;59;48.778;9.156;2023-01-30T03:45:35;21.23;;;15.23;;
553;SDS011;59;48.778;9.156;2023-01-30T03:48:01;23.50;;;16.03;;
553;SDS011;59;48.778;9.156;2023-01-30T03:50:26;21.43;;;15.37;;
553;SDS011;59;48.778;9.156;2023-01-30T03:52:53;20.13;;;14.00;;
553;SDS011;59;48.778;9.156;2023-01-30T03:55:19;19.47;;;14.03;;
553;SDS011;59;48.778;9.156;2023-01-30T03:57:45;19.30;;;13.23;;
553;SDS011;59;48.778;9.156;2023-01-30T04:00:11;21.23;;;14.73;;
553;SDS011;59;48.778;9.156;2023-01-30T04:02:37;18.03;;;13.37;;
553;SDS011;59;48.778;9.156;2023-01-30T04:05:03;18.27;;;12.77;;
553;SDS011;59;48.778;9.156;2023-01-30T04:07:29;19.03;;;13.43;;
553;SDS011;59;48.778;9.156;2023-01-30T04:09:55;21.07;;;14.50;;
553;SDS011;59;48.778;9.156;2023-01-30T04:12:21;20.30;;;13.80;;
553;SDS011;59;48.778;9.156;2023-01-30T04:14:46;18.30;;;13.93;;
553;SDS011;59;48.778;9.156;2023-01-30T04:17:12;20.10;;;13.90;;
553;SDS011;59;48.778;9.156;2023-01-30T04:19:38;18.80;;;12.30;;
553;SDS011;59;48.778;9.156;2023-01-30T04:22:03;19.00;;;13.27;;
553;SDS011;59;48.778;9.156;2023-01-30T04:24:29;17.83;;;12.53;;
553;SDS011;59;48.778;9.156;2023-01-30T04:26:54;18.67;;;13.03;;
553;SDS011;59;48.778;9.156;2023-01-30T04:29:20;15.60;;;11.43;;
553;SDS011;59;48.778;9.156;2023-01-30T04:31:46;17.40;;;13.30;;
553;SDS011;59;48.778;9.156;2023-01-30T04:34:11;17.67;;;12.73;;
553;SDS011;59;48.778;9.156;2023-01-30T04:36:37;19.20;;;13.23;;
553;SDS011;59;48.778;9.156;2023-01-30T04:39:03;19.07;;;13.10;;
553;SDS011;59;48.778;9.156;2023-01-30T04:41:28;15.77;;;11.77;;
553;SDS011;59;48.778;9.156;2023-01-30T04:43:54;19.20;;;12.77;;
553;SDS011;59;48.778;9.156;2023-01-30T04:46:20;18.50;;;13.20;;
553;SDS011;59;48.778;9.156;2023-01-30T04:48:45;19.27;;;13.80;;
553;SDS011;59;48.778;9.156;2023-01-30T04:51:11;19.60;;;13.50;;
553;SDS011;59;48.778;9.156;2023-01-30T04:53:36;23.60;;;15.47;;
553;SDS011;59;48.778;9.156;2023-01-30T04:56:02;23.00;;;14.63;;
553;SDS011;59;48.778;9.156;2023-01-30T04:58:28;20.80;;;13.20;;
553;SDS011;59;48.778;9.156;2023-01-30T05:00:54;18.63;;;12.50;;
553;SDS011;59;48.778;9.156;2023-01-30T05:03:19;21.50;;;13.00;;
553;SDS011;59;48.778;9.156;2023-01-30T05:05:45;17.30;;;12.67;;
553;SDS011;59;48.778;9.156;2023-01-30T05:08:11;16.73;;;11.90;;
553;SDS011;59;48.778;9.156;2023-01-30T05:10:37;16.20;;;11.57;;
553;SDS011;59;48.778;9.156;2023-01-30T05:15:38;15.57;;;11.00;;
553;SDS011;59;48.778;9.156;2023-01-30T05:18:05;16.87;;;11.00;;
553;SDS011;59;48.778;9.156;2023-01-30T05:20:30;16.50;;;11.87;;
553;SDS011;59;48.778;9.156;2023-01-30T05:22:56;14.53;;;11.60;;
553;SDS011;59;48.778;9.156;2023-01-30T05:25:22;17.33;;;12.73;;
553;SDS011;59;48.778;9.156;2023-01-30T05:27:49;16.50;;;11.53;;
553;SDS011;59;48.778;9.156;2023-01-30T05:30:26;18.23;;;12.73;;
553;SDS011;59;48.778;9.156;2023-01-30T05:32:52;15.47;;;11.57;;
553;SDS011;59;48.778;9.156;2023-01-30T05:35:18;15.80;;;11.20;;
553;SDS011;59;48.778;9.156;2023-01-30T05:37:43;15.60;;;11.87;;
553;SDS011;59;48.778;9.156;2023-01-30T05:40:13;17.03;;;11.40;;
553;SDS011;59;48.778;9.156;2023-01-30T05:42:39;22.50;;;14.23;;
553;SDS011;59;48.778;9.156;2023-01-30T05:45:05;17.17;;;12.17;;
553;SDS011;59;48.778;9.156;2023-01-30T05:47:31;18.20;;;11.97;;
553;SDS011;59;48.778;9.156;2023-01-30T05:49:56;19.33;;;12.17;;
553;SDS011;59;48.778;9.156;2023-01-30T05:52:22;14.70;;;10.70;;
553;SDS011;59;48.778;9.156;2023-01-30T05:54:48;16.67;;;11.57;;
553;SDS011;59;48.778;9.156;2023-01-30T05:57:13;14.13;;;11.20;;
553;SDS011;59;48.778;9.156;2023-01-30T05:59:39;19.47;;;12.57;;
553;SDS011;59;48.778;9.156;2023-01-30T06:02:05;16.17;;;11.67;;
553;SDS011;59;48.778;9.156;2023-01-30T06:04:30;17.47;;;12.43;;
553;SDS011;59;48.778;9.156;2023-01-30T06:06:56;16.90;;;11.33;;
553;SDS011;59;48.778;9.156;2023-01-30T06:09:22;18.53;;;13.00;;
553;SDS011;59;48.778;9.156;2023-01-30T06:11:47;18.07;;;13.17;;
553;SDS011;59;48.778;9.156;2023-01-30T06:14:13;16.47;;;12.27;;
553;SDS011;59;48.778;9.156;2023-01-30T06:16:38;16.53;;;11.70;;
553;SDS011;59;48.778;9.156;2023-01-30T06:19:04;16.33;;;11.63;;
553;SDS011;59;48.778;9.156;2023-01-30T06:21:30;15.10;;;10.97;;
553;SDS011;59;48.778;9.156;2023-01-30T06:23:56;15.80;;;10.53;;
553;SDS011;59;48.778;9.156;2023-01-30T06:26:21;17.83;;;12.37;;
553;SDS011;59;48.778;9.156;2023-01-30T06:28:47;16.37;;;11.10;;
553;SDS011;59;48.778;9.156;2023-01-30T06:31:13;16.23;;;12.73;;
553;SDS011;59;48.778;9.156;2023-01-30T06:33:40;16.30;;;10.80;;
553;SDS011;59;48.778;9.156;2023-01-30T06:36:07;16.27;;;11.50;;
553;SDS011;59;48.778;9.156;2023-01-30T06:38:33;17.10;;;11.37;;
553;SDS011;59;48.778;9.156;2023-01-30T06:41:05;17.07;;;12.10;;
553;SDS011;59;48.778;9.156;2023-01-30T06:43:33;44.37;;;26.10;;
553;SDS011;59;48.778;9.156;2023-01-30T06:45:59;38.33;;;24.80;;
553;SDS011;59;48.778;9.156;2023-01-30T06:48:24;16.73;;;12.30;;
553;SDS011;59;48.778;9.156;2023-01-30T06:50:50;16.33;;;11.70;;
553;SDS011;59;48.778;9.156;2023-01-30T06:53:16;16.33;;;10.97;;
553;SDS011;59;48.778;9.156;2023-01-30T06:55:41;16.27;;;11.50;;
553;SDS011;59;48.778;9.156;2023-01-30T06:58:08;14.33;;;11.60;;
553;SDS011;59;48.778;9.156;2023-01-30T07:00:36;14.60;;;10.73;;
553;SDS011;59;48.778;9.156;2023-01-30T07:03:10;15.97;;;11.50;;
553;SDS011;59;48.778;9.156;2023-01-30T07:05:40;15.60;;;11.63;;
553;SDS011;59;48.778;9.156;2023-01-30T07:08:06;16.10;;;12.10;;
553;SDS011;59;48.778;9.156;2023-01-30T07:10:32;16.47;;;11.33;;
553;SDS011;59;48.778;9.156;2023-01-30T07:12:59;18.60;;;12.00;;
553;SDS011;59;48.778;9.156;2023-01-30T07:15:25;17.77;;;11.00;;
553;SDS011;59;48.778;9.156;2023-01-30T07:17:51;17.40;;;11.60;;
553;SDS011;59;48.778;9.156;2023-01-30T07:20:17;16.63;;;11.90;;
553;SDS011;59;48.778;9.156;2023-01-30T07:22:48;17.07;;;11.60;;
553;SDS011;59;48.778;9.156;2023-01-30T07:25:21;14.03;;;10.70;;
553;SDS011;59;48.778;9.156;2023-01-30T07:27:51;14.33;;;9.70;;
553;SDS011;59;48.778;9.156;2023-01-30T07:30:18;15.07;;;10.77;;
553;SDS011;59;48.778;9.156;2023-01-30T07:32:44;13.00;;;9.70;;
553;SDS011;59;48.778;9.156;2023-01-30T07:35:14;14.47;;;10.37;;
553;SDS011;59;48.778;9.156;2023-01-30T07:37:40;17.93;;;11.63;;
553;SDS011;59;48.778;9.156;2023-01-30T07:40:05;15.20;;;10.40;;
553;SDS011;59;48.778;9.156;2023-01-30T07:42:33;16.80;;;10.50;;
553;SDS011;59;48.778;9.156;2023-01-30T07:44:58;16.10;;;10.93;;
553;SDS011;59;48.778;9.156;2023-01-30T07:47:24;15.23;;;10.33;;
553;SDS011;59;48.778;9.156;2023-01-30T07:49:50;13.60;;;9.60;;
553;SDS011;59;48.778;9.156;2023-01-30T07:52:15;14.77;;;9.07;;
553;SDS011;59;48.778;9.156;2023-01-30T07:54:41;13.37;;;9.77;;
553;SDS011;59;48.778;9.156;2023-01-30T07:57:09;10.80;;;8.00;;
553;SDS011;59;48.778;9.156;2023-01-30T07:59:35;14.30;;;10.20;;
553;SDS011;59;48.778;9.156;2023-01-30T08:02:01;15.37;;;9.83;;
553;SDS011;59;48.778;9.156;2023-01-30T08:04:26;14.50;;;9.10;;
553;SDS011;59;48.778;9.156;2023-01-30T08:06:52;12.67;;;9.20;;
553;SDS011;59;48.778;9.156;2023-01-30T08:09:18;14.00;;;9.10;;
553;SDS011;59;48.778;9.156;2023-01-30T08:11:43;13.00;;;8.40;;
553;SDS011;59;48.778;9.156;2023-01-30T08:14:09;13.20;;;9.37;;
553;SDS011;59;48.778;9.156;2023-01-30T08:16:35;13.30;;;9.50;;
553;SDS011;59;48.778;9.156;2023-01-30T08:19:03;13.57;;;9.53;;
553;SDS011;59;48.778;9.156;2023-01-30T08:21:29;14.47;;;9.50;;
553;SDS011;59;48.778;9.156;2023-01-30T08:23:55;13.83;;;9.30;;
553;SDS011;59;48.778;9.156;2023-01-30T08:26:20;12.87;;;8.60;;
553;SDS011;59;48.778;9.156;2023-01-30T08:28:46;14.93;;;9.37;;
553;SDS011;59;48.778;9.156;2023-01-30T08:31:12;13.30;;;9.10;;
553;SDS011;59;48.778;9.156;2023-01-30T08:33:38;13.40;;;9.10;;
553;SDS011;59;48.778;9.156;2023-01-30T08:36:04;13.70;;;9.63;;
553;SDS011;59;48.778;9.156;2023-01-30T08:38:30;72.60;;;41.53;;
553;SDS011;59;48.778;9.156;2023-01-30T08:40:56;53.47;;;32.33;;
553;SDS011;59;48.778;9.156;2023-01-30T08:43:22;34.07;;;21.97;;
553;SDS011;59;48.778;9.156;2023-01-30T08:45:48;23.13;;;15.60;;
553;SDS011;59;48.778;9.156;2023-01-30T08:48:16;16.53;;;11.47;;
553;SDS011;59;48.778;9.156;2023-01-30T08:50:42;16.30;;;10.43;;
553;SDS011;59;48.778;9.156;2023-01-30T08:53:08;14.90;;;9.40;;
553;SDS011;59;48.778;9.156;2023-01-30T08:55:34;14.10;;;9.50;;
553;SDS011;59;48.778;9.156;2023-01-30T08:57:59;12.50;;;8.80;;
553;SDS011;59;48.778;9.156;2023-01-30T09:00:26;12.43;;;8.57;;
553;SDS011;59;48.778;9.156;2023-01-30T09:02:55;12.27;;;8.63;;
553;SDS011;59;48.778;9.156;2023-01-30T09:05:22;14.13;;;8.67;;
553;SDS011;59;48.778;9.156;2023-01-30T09:07:48;13.23;;;8.63;;
553;SDS011;59;48.778;9.156;2023-01-30T09:10:14;12.53;;;8.40;;
553;SDS011;59;48.778;9.156;2023-01-30T09:12:40;10.00;;;7.20;;
553;SDS011;59;48.778;9.156;2023-01-30T09:15:06;13.07;;;8.30;;
553;SDS011;59;48.778;9.156;2023-01-30T09:17:32;11.77;;;8.40;;
553;SDS011;59;48.778;9.156;2023-01-30T09:19:58;10.60;;;7.70;;
553;SDS011;59;48.778;9.156;2023-01-30T09:22:23;14.40;;;8.40;;
553;SDS011;59;48.778;9.156;2023-01-30T09:24:49;16.40;;;9.33;;
553;SDS011;59;48.778;9.156;2023-01-30T09:27:14;12.10;;;7.70;;
553;SDS011;59;48.778;9.156;2023-01-30T09:29:40;12.33;;;7.10;;
553;SDS011;59;48.778;9.156;2023-01-30T09:32:06;11.47;;;6.97;;
553;SDS011;59;48.778;9.156;2023-01-30T09:34:31;9.50;;;6.87;;
553;SDS011;59;48.778;9.156;2023-01-30T09:36:57;9.70;;;6.73;;
553;SDS011;59;48.778;9.156;2023-01-30T09:39:24;8.20;;;5.70;;
553;SDS011;59;48.778;9.156;2023-01-30T09:47:10;8.00;;;5.53;;
553;SDS011;59;48.778;9.156;2023-01-30T09:49:57;10.13;;;6.63;;
553;SDS011;59;48.778;9.156;2023-01-30T09:52:59;7.53;;;5.10;;
553;SDS011;59;48.778;9.156;2023-01-30T09:55:37;7.10;;;5.20;;
553;SDS011;59;48.778;9.156;2023-01-30T09:58:07;8.07;;;5.43;;
553;SDS011;59;48.778;9.156;2023-01-30T10:00:41;6.27;;;4.60;;
553;SDS011;59;48.778;9.156;2023-01-30T10:03:10;8.93;;;5.63;;
553;SDS011;59;48.778;9.156;2023-01-30T10:05:49;7.23;;;5.50;;
553;SDS011;59;48.778;9.156;2023-01-30T10:21:56;8.23;;;5.57;;
553;SDS011;59;48.778;9.156;2023-01-30T10:27:16;6.20;;;4.80;;
553;SDS011;59;48.778;9.156;2023-01-30T10:29:53;48.90;;;28.53;;
553;SDS011;59;48.778;9.156;2023-01-30T10:32:28;15.77;;;9.70;;
553;SDS011;59;48.778;9.156;2023-01-30T10:35:02;8.37;;;5.37;;
553;SDS011;59;48.778;9.156;2023-01-30T10:37:39;8.33;;;5.60;;
553;SDS011;59;48.778;9.156;2023-01-30T10:45:27;7.33;;;5.40;;
553;SDS011;59;48.778;9.156;2023-01-30T10:50:51;6.73;;;4.40;;
553;SDS011;59;48.778;9.156;2023-01-30T10:56:15;4.77;;;3.50;;
553;SDS011;59;48.778;9.156;2023-01-30T10:58:56;5.57;;;4.07;;
553;SDS011;59;48.778;9.156;2023-01-30T11:04:18;5.17;;;3.03;;
553;SDS011;59;48.778;9.156;2023-01-30T11:06:48;3.57;;;2.90;;
553;SDS011;59;48.778;9.156;2023-01-30T11:09:14;4.20;;;3.17;;
553;SDS011;59;48.778;9.156;2023-01-30T11:11:45;5.07;;;3.50;;
553;SDS011;59;48.778;9.156;2023-01-30T11:14:13;2.80;;;2.53;;
553;SDS011;59;48.778;9.156;2023-01-30T11:16:40;4.67;;;3.40;;
553;SDS011;59;48.778;9.156;2023-01-30T11:19:07;4.10;;;3.13;;
553;SDS011;59;48.778;9.156;2023-01-30T11:21:34;4.13;;;3.23;;
553;SDS011;59;48.778;9.156;2023-01-30T11:24:03;4.87;;;3.47;;
553;SDS011;59;48.778;9.156;2023-01-30T11:26:36;6.47;;;3.57;;
553;SDS011;59;48.778;9.156;2023-01-30T11:31:49;5.40;;;3.30;;
553;SDS011;59;48.778;9.156;2023-01-30T11:34:16;3.80;;;3.30;;
553;SDS011;59;48.778;9.156;2023-01-30T11:36:44;5.33;;;3.70;;
553;SDS011;59;48.778;9.156;2023-01-30T11:41:43;5.43;;;3.80;;
553;SDS011;59;48.778;9.156;2023-01-30T11:44:22;7.80;;;5.10;;
553;SDS011;59;48.778;9.156;2023-01-30T11:46:53;7.17;;;5.40;;
553;SDS011;59;48.778;9.156;2023-01-30T11:49:23;9.50;;;6.50;;
553;SDS011;59;48.778;9.156;2023-01-30T11:51:57;9.53;;;6.10;;
553;SDS011;59;48.778;9.156;2023-01-30T11:56:56;53.03;;;31.00;;
553;SDS011;59;48.778;9.156;2023-01-30T12:02:00;9.00;;;5.87;;
553;SDS011;59;48.778;9.156;2023-01-30T12:04:33;9.60;;;6.20;;
553;SDS011;59;48.778;9.156;2023-01-30T12:07:03;8.70;;;5.60;;
553;SDS011;59;48.778;9.156;2023-01-30T12:09:34;7.20;;;5.00;;
553;SDS011;59;48.778;9.156;2023-01-30T12:12:01;9.20;;;5.40;;
553;SDS011;59;48.778;9.156;2023-01-30T12:14:38;9.50;;;6.07;;
553;SDS011;59;48.778;9.156;2023-01-30T12:17:15;10.50;;;5.97;;
553;SDS011;59;48.778;9.156;2023-01-30T12:25:26;9.50;;;6.10;;
553;SDS011;59;48.778;9.156;2023-01-30T12:31:10;7.43;;;5.30;;
553;SDS011;59;48.778;9.156;2023-01-30T12:33:33;7.33;;;5.00;;
553;SDS011;59;48.778;9.156;2023-01-30T12:38:44;8.97;;;5.40;;
553;SDS011;59;48.778;9.156;2023-01-30T12:41:37;11.73;;;6.50;;
553;SDS011;59;48.778;9.156;2023-01-30T12:44:18;9.07;;;6.33;;
553;SDS011;59;48.778;9.156;2023-01-30T13:06:22;8.77;;;5.10;;
553;SDS011;59;48.778;9.156;2023-01-30T13:14:29;7.20;;;4.87;;
553;SDS011;59;48.778;9.156;2023-01-30T13:17:06;7.20;;;4.93;;
553;SDS011;59;48.778;9.156;2023-01-30T13:19:55;7.73;;;4.80;;
553;SDS011;59;48.778;9.156;2023-01-30T13:25:26;66.57;;;38.50;;
553;SDS011;59;48.778;9.156;2023-01-30T13:27:59;16.70;;;11.07;;
553;SDS011;59;48.778;9.156;2023-01-30T13:30:28;9.37;;;5.67;;
553;SDS011;59;48.778;9.156;2023-01-30T13:33:00;8.10;;;4.80;;
553;SDS011;59;48.778;9.156;2023-01-30T13:35:30;6.30;;;4.97;;
553;SDS011;59;48.778;9.156;2023-01-30T13:37:59;5.73;;;4.00;;
553;SDS011;59;48.778;9.156;2023-01-30T13:40:29;6.40;;;4.57;;
553;SDS011;59;48.778;9.156;2023-01-30T13:45:54;5.63;;;4.20;;
553;SDS011;59;48.778;9.156;2023-01-30T13:48:29;5.73;;;3.97;;
553;SDS011;59;48.778;9.156;2023-01-30T14:09:36;4.00;;;2.53;;
553;SDS011;59;48.778;9.156;2023-01-30T14:12:06;2.80;;;2.27;;
553;SDS011;59;48.778;9.156;2023-01-30T14:14:42;3.23;;;2.30;;
553;SDS011;59;48.778;9.156;2023-01-30T14:20:36;2.40;;;1.90;;
553;SDS011;59;48.778;9.156;2023-01-30T14:25:42;2.50;;;1.90;;
553;SDS011;59;48.778;9.156;2023-01-30T14:38:35;3.00;;;2.10;;
553;SDS011;59;48.778;9.156;2023-01-30T14:48:52;3.30;;;2.30;;
553;SDS011;59;48.778;9.156;2023-01-30T14:51:44;3.27;;;2.20;;
553;SDS011;59;48.778;9.156;2023-01-30T15:04:18;3.83;;;2.90;;
553;SDS011;59;48.778;9.156;2023-01-30T15:06:44;3.40;;;2.80;;
553;SDS011;59;48.778;9.156;2023-01-30T15:09:15;5.00;;;3.00;;
553;SDS011;59;48.778;9.156;2023-01-30T15:11:44;5.30;;;3.37;;
553;SDS011;59;48.778;9.156;2023-01-30T15:14:23;4.00;;;3.10;;
553;SDS011;59;48.778;9.156;2023-01-30T15:17:00;3.90;;;2.93;;
553;SDS011;59;48.778;9.156;2023-01-30T15:22:45;5.40;;;3.77;;
553;SDS011;59;48.778;9.156;2023-01-30T15:33:15;5.70;;;3.87;;
553;SDS011;59;48.778;9.156;2023-01-30T15:35:42;6.07;;;4.20;;
553;SDS011;59;48.778;9.156;2023-01-30T15:38:28;4.70;;;3.83;;
553;SDS011;59;48.778;9.156;2023-01-30T15:40:57;4.73;;;3.40;;
553;SDS011;59;48.778;9.156;2023-01-30T15:46:45;5.13;;;3.80;;
553;SDS011;59;48.778;9.156;2023-01-30T15:52:14;5.33;;;3.50;;
553;SDS011;59;48.778;9.156;2023-01-30T15:54:52;7.97;;;4.40;;
553;SDS011;59;48.778;9.156;2023-01-30T15:57:26;4.57;;;3.60;;
553;SDS011;59;48.778;9.156;2023-01-30T15:59:54;5.67;;;4.60;;
553;SDS011;59;48.778;9.156;2023-01-30T16:02:34;5.10;;;4.03;;
553;SDS011;59;48.778;9.156;2023-01-30T16:05:04;5.60;;;3.60;;
553;SDS011;59;48.778;9.156;2023-01-30T16:07:31;7.30;;;4.10;;
553;SDS011;59;48.778;9.156;2023-01-30T16:09:58;4.97;;;4.00;;
553;SDS011;59;48.778;9.156;2023-01-30T16:12:25;5.80;;;4.47;;
553;SDS011;59;48.778;9.156;2023-01-30T16:14:52;7.23;;;4.20;;
553;SDS011;59;48.778;9.156;2023-01-30T16:17:25;5.30;;;3.80;;
553;SDS011;59;48.778;9.156;2023-01-30T16:19:53;5.83;;;4.10;;
553;SDS011;59;48.778;9.156;2023-01-30T16:22:19;6.30;;;4.27;;
553;SDS011;59;48.778;9.156;2023-01-30T16:24:51;7.10;;;4.50;;
553;SDS011;59;48.778;9.156;2023-01-30T16:27:19;7.20;;;4.90;;
553;SDS011;59;48.778;9.156;2023-01-30T16:29:56;6.80;;;4.83;;
553;SDS011;59;48.778;9.156;2023-01-30T16:32:26;6.90;;;4.50;;
553;SDS011;59;48.778;9.156;2023-01-30T16:37:58;7.90;;;5.40;;
553;SDS011;59;48.778;9.156;2023-01-30T16:40:26;9.90;;;5.67;;
553;SDS011;59;48.778;9.156;2023-01-30T16:42:59;7.20;;;5.07;;
553;SDS011;59;48.778;9.156;2023-01-30T16:48:41;17.70;;;10.27;;
553;SDS011;59;48.778;9.156;2023-01-30T16:53:23;9.47;;;5.90;;
553;SDS011;59;48.778;9.156;2023-01-30T16:55:53;8.60;;;5.33;;
553;SDS011;59;48.778;9.156;2023-01-30T16:58:24;9.50;;;5.53;;
553;SDS011;59;48.778;9.156;2023-01-30T17:00:52;6.20;;;4.67;;
553;SDS011;59;48.778;9.156;2023-01-30T17:03:23;6.97;;;4.70;;
553;SDS011;59;48.778;9.156;2023-01-30T17:05:53;5.23;;;4.07;;
553;SDS011;59;48.778;9.156;2023-01-30T17:10:56;6.90;;;5.03;;
553;SDS011;59;48.778;9.156;2023-01-30T17:13:30;7.40;;;4.60;;
553;SDS011;59;48.778;9.156;2023-01-30T17:18:44;9.80;;;5.00;;
553;SDS011;59;48.778;9.156;2023-01-30T17:21:11;6.70;;;4.37;;
553;SDS011;59;48.778;9.156;2023-01-30T17:23:37;5.73;;;4.20;;
553;SDS011;59;48.778;9.156;2023-01-30T17:26:10;7.90;;;5.20;;
553;SDS011;59;48.778;9.156;2023-01-30T17:28:39;9.40;;;4.80;;
553;SDS011;59;48.778;9.156;2023-01-30T17:31:09;7.67;;;4.83;;
553;SDS011;59;48.778;9.156;2023-01-30T17:33:38;7.47;;;5.00;;
553;SDS011;59;48.778;9.156;2023-01-30T17:36:04;8.57;;;5.30;;
553;SDS011;59;48.778;9.156;2023-01-30T17:38:40;6.50;;;4.57;;
553;SDS011;59;48.778;9.156;2023-01-30T17:41:07;49.47;;;30.30;;
553;SDS011;59;48.778;9.156;2023-01-30T17:43:39;14.40;;;8.53;;
553;SDS011;59;48.778;9.156;2023-01-30T17:46:05;11.00;;;6.40;;
553;SDS011;59;48.778;9.156;2023-01-30T17:48:33;10.13;;;6.27;;
553;SDS011;59;48.778;9.156;2023-01-30T17:50:59;9.03;;;6.13;;
553;SDS011;59;48.778;9.156;2023-01-30T17:53:25;9.33;;;6.47;;
553;SDS011;59;48.778;9.156;2023-01-30T17:55:50;9.50;;;5.60;;
553;SDS011;59;48.778;9.156;2023-01-30T17:58:16;7.83;;;5.13;;
553;SDS011;59;48.778;9.156;2023-01-30T18:00:42;8.10;;;5.27;;
553;SDS011;59;48.778;9.156;2023-01-30T18:03:08;8.40;;;5.50;;
553;SDS011;59;48.778;9.156;2023-01-30T18:05:34;8.37;;;5.53;;
553;SDS011;59;48.778;9.156;2023-01-30T18:08:00;9.13;;;5.93;;
553;SDS011;59;48.778;9.156;2023-01-30T18:10:26;7.73;;;4.73;;
553;SDS011;59;48.778;9.156;2023-01-30T18:12:51;9.83;;;5.47;;
553;SDS011;59;48.778;9.156;2023-01-30T18:15:17;7.83;;;4.90;;
553;SDS011;59;48.778;9.156;2023-01-30T18:17:44;7.27;;;4.50;;
553;SDS011;59;48.778;9.156;2023-01-30T18:20:12;7.60;;;5.10;;
553;SDS011;59;48.778;9.156;2023-01-30T18:22:38;7.20;;;4.53;;
553;SDS011;59;48.778;9.156;2023-01-30T18:25:04;6.20;;;5.07;;
553;SDS011;59;48.778;9.156;2023-01-30T18:27:30;7.90;;;4.87;;
553;SDS011;59;48.778;9.156;2023-01-30T18:29:56;6.87;;;4.90;;
553;SDS011;59;48.778;9.156;2023-01-30T18:32:21;9.60;;;5.50;;
553;SDS011;59;48.778;9.156;2023-01-30T18:34:47;8.60;;;5.63;;
553;SDS011;59;48.778;9.156;2023-01-30T18:39:43;8.50;;;5.87;;
553;SDS011;59;48.778;9.156;2023-01-30T18:42:09;6.70;;;5.00;;
553;SDS011;59;48.778;9.156;2023-01-30T18:44:34;6.27;;;4.80;;
553;SDS011;59;48.778;9.156;2023-01-30T18:47:00;6.70;;;4.80;;
553;SDS011;59;48.778;9.156;2023-01-30T18:49:25;7.60;;;5.00;;
553;SDS011;59;48.778;9.156;2023-01-30T18:51:51;5.53;;;4.07;;
553;SDS011;59;48.778;9.156;2023-01-30T18:54:17;6.00;;;4.80;;
553;SDS011;59;48.778;9.156;2023-01-30T18:56:42;6.70;;;4.60;;
553;SDS011;59;48.778;9.156;2023-01-30T18:59:08;5.90;;;4.53;;
553;SDS011;59;48.778;9.156;2023-01-30T19:01:35;6.50;;;4.73;;
553;SDS011;59;48.778;9.156;2023-01-30T19:04:03;6.67;;;5.10;;
553;SDS011;59;48.778;9.156;2023-01-30T19:06:30;6.60;;;4.77;;
553;SDS011;59;48.778;9.156;2023-01-30T19:08:59;7.07;;;4.63;;
553;SDS011;59;48.778;9.156;2023-01-30T19:11:25;6.83;;;5.10;;
553;SDS011;59;48.778;9.156;2023-01-30T19:14:09;8.40;;;4.80;;
553;SDS011;59;48.778;9.156;2023-01-30T19:16:36;7.37;;;4.60;;
553;SDS011;59;48.778;9.156;2023-01-30T19:19:03;6.53;;;5.23;;
553;SDS011;59;48.778;9.156;2023-01-30T19:21:29;7.17;;;5.43;;